createdAt,value
2017-03-24T00:01:12.673Z,0
2017-03-24T00:02:26.039Z,0
2017-03-24T00:03:39.790Z,0
2017-03-24T00:04:53.959Z,0
2017-03-24T00:06:08.330Z,0
2017-03-24T00:07:21.756Z,0
2017-03-24T00:08:35.723Z,0
2017-03-24T00:09:52.262Z,0
2017-03-24T00:11:06.448Z,0
2017-03-24T00:12:19.998Z,0
2017-03-24T00:13:33.976Z,0
2017-03-24T00:14:47.408Z,0
2017-03-24T00:16:01.027Z,0
2017-03-24T00:17:14.916Z,0
2017-03-24T00:18:28.494Z,0
2017-03-24T00:19:41.921Z,0
2017-03-24T00:20:55.430Z,0
2017-03-24T00:22:08.973Z,0
2017-03-24T00:23:22.707Z,0
2017-03-24T00:24:36.107Z,0
2017-03-24T00:25:50.253Z,0
2017-03-24T00:27:04.512Z,0
2017-03-24T00:28:18.348Z,0
2017-03-24T00:29:32.437Z,0
2017-03-24T00:30:46.238Z,0
2017-03-24T00:31:59.642Z,0
2017-03-24T00:33:13.386Z,0
2017-03-24T00:34:26.798Z,0
2017-03-24T00:35:41.201Z,0
2017-03-24T00:36:54.601Z,0
2017-03-24T00:38:08.757Z,0
2017-03-24T00:39:22.509Z,0
2017-03-24T00:40:36.152Z,0
2017-03-24T00:41:49.932Z,0
2017-03-24T00:43:03.788Z,0
2017-03-24T00:44:17.424Z,0
2017-03-24T00:45:31.119Z,0
2017-03-24T00:46:45.215Z,0
2017-03-24T00:47:58.980Z,0
2017-03-24T00:49:13.083Z,0
2017-03-24T00:50:26.619Z,0
2017-03-24T00:51:40.017Z,0
2017-03-24T00:52:53.555Z,0
2017-03-24T00:54:07.350Z,0
2017-03-24T00:55:21.148Z,0
2017-03-24T00:56:34.715Z,0
2017-03-24T00:57:48.293Z,0
2017-03-24T00:59:02.424Z,0
2017-03-24T01:00:16.231Z,0
2017-03-24T01:01:29.860Z,0
2017-03-24T01:02:43.535Z,0
2017-03-24T01:03:57.034Z,0
2017-03-24T01:05:10.529Z,0
2017-03-24T01:06:24.250Z,0
2017-03-24T01:07:38.797Z,0
2017-03-24T01:08:52.523Z,0
2017-03-24T01:10:06.347Z,0
2017-03-24T01:11:20.017Z,0
2017-03-24T01:12:33.886Z,0
2017-03-24T01:13:47.295Z,0
2017-03-24T01:15:00.852Z,0
2017-03-24T01:16:14.252Z,0
2017-03-24T01:17:27.768Z,0
2017-03-24T01:18:41.542Z,0
2017-03-24T01:19:55.745Z,0
2017-03-24T01:21:09.190Z,0
2017-03-24T01:22:22.676Z,0
2017-03-24T01:23:36.228Z,0
2017-03-24T01:24:49.996Z,0
2017-03-24T01:26:06.503Z,0
2017-03-24T01:27:20.624Z,0
2017-03-24T01:28:34.073Z,0
2017-03-24T01:29:47.496Z,0
2017-03-24T01:31:01.145Z,0
2017-03-24T01:32:14.989Z,0
2017-03-24T01:33:28.382Z,0
2017-03-24T01:34:42.490Z,0
2017-03-24T01:35:55.910Z,0
2017-03-24T01:37:09.755Z,0
2017-03-24T01:38:23.399Z,0
2017-03-24T01:39:37.076Z,0
2017-03-24T01:40:50.832Z,0
2017-03-24T01:42:04.488Z,0
2017-03-24T01:43:18.169Z,0
2017-03-24T01:44:31.767Z,0
2017-03-24T01:45:45.360Z,0
2017-03-24T01:46:58.888Z,0
2017-03-24T01:48:12.345Z,0
2017-03-24T01:49:26.293Z,0
2017-03-24T01:50:39.628Z,0
2017-03-24T01:51:53.114Z,0
2017-03-24T01:53:06.931Z,0
2017-03-24T01:54:20.787Z,0
2017-03-24T01:55:34.694Z,0
2017-03-24T01:56:48.304Z,0
2017-03-24T01:58:02.019Z,0
2017-03-24T01:59:15.599Z,0
2017-03-24T02:00:29.107Z,0
2017-03-24T02:01:43.262Z,0
2017-03-24T02:02:56.662Z,0
2017-03-24T02:04:10.371Z,0
2017-03-24T02:05:23.749Z,0
2017-03-24T02:06:37.200Z,0
2017-03-24T02:07:50.965Z,0
2017-03-24T02:09:04.782Z,0
2017-03-24T02:10:18.496Z,0
2017-03-24T02:11:32.660Z,0
2017-03-24T02:12:46.787Z,0
2017-03-24T02:14:01.809Z,0
2017-03-24T02:15:15.602Z,0
2017-03-24T02:16:29.299Z,0
2017-03-24T02:17:43.448Z,0
2017-03-24T02:18:57.461Z,0
2017-03-24T02:20:11.366Z,0
2017-03-24T02:21:25.182Z,0
2017-03-24T02:22:38.635Z,0
2017-03-24T02:23:52.179Z,0
2017-03-24T02:25:05.609Z,0
2017-03-24T02:26:19.953Z,0
2017-03-24T02:27:33.369Z,0
2017-03-24T02:28:46.871Z,0
2017-03-24T02:30:00.340Z,0
2017-03-24T02:31:13.779Z,0
2017-03-24T02:32:27.722Z,0
2017-03-24T02:33:41.570Z,0
2017-03-24T02:34:54.884Z,0
2017-03-24T02:36:08.567Z,0
2017-03-24T02:37:21.883Z,0
2017-03-24T02:38:36.002Z,0
2017-03-24T02:39:49.479Z,0
2017-03-24T02:41:02.910Z,0
2017-03-24T02:42:18.356Z,0
2017-03-24T02:43:31.836Z,0
2017-03-24T02:44:45.677Z,0
2017-03-24T02:45:59.209Z,0
2017-03-24T02:47:12.596Z,0
2017-03-24T02:48:26.140Z,0
2017-03-24T02:49:39.478Z,0
2017-03-24T02:50:53.482Z,0
2017-03-24T02:52:06.799Z,0
2017-03-24T02:53:20.520Z,0
2017-03-24T02:54:34.350Z,0
2017-03-24T02:55:47.868Z,0
2017-03-24T02:57:01.486Z,0
2017-03-24T02:58:14.914Z,0
2017-03-24T02:59:28.300Z,0
2017-03-24T03:00:42.027Z,0
2017-03-24T03:01:55.393Z,0
2017-03-24T03:03:09.148Z,0
2017-03-24T03:04:22.508Z,0
2017-03-24T03:05:36.042Z,0
2017-03-24T03:06:49.664Z,0
2017-03-24T03:08:03.580Z,0
2017-03-24T03:09:17.259Z,0
2017-03-24T03:10:31.289Z,0
2017-03-24T03:11:45.010Z,0
2017-03-24T03:12:58.473Z,0
2017-03-24T03:14:12.162Z,0
2017-03-24T03:15:26.395Z,0
2017-03-24T03:16:40.055Z,0
2017-03-24T03:17:53.626Z,0
2017-03-24T03:19:07.336Z,0
2017-03-24T03:20:20.892Z,0
2017-03-24T03:21:34.670Z,0
2017-03-24T03:22:48.825Z,0
2017-03-24T03:24:02.267Z,0
2017-03-24T03:25:15.819Z,0
2017-03-24T03:26:29.197Z,0
2017-03-24T03:27:43.047Z,0
2017-03-24T03:28:56.679Z,0
2017-03-24T03:30:10.392Z,0
2017-03-24T03:31:23.852Z,0
2017-03-24T03:32:37.668Z,0
2017-03-24T03:33:51.703Z,0
2017-03-24T03:35:05.184Z,0
2017-03-24T03:36:18.748Z,0
2017-03-24T03:37:41.384Z,0
2017-03-24T03:38:54.803Z,0
2017-03-24T03:40:08.492Z,0
2017-03-24T03:41:21.907Z,0
2017-03-24T03:42:35.984Z,0
2017-03-24T03:43:49.582Z,0
2017-03-24T03:45:03.077Z,0
2017-03-24T03:46:16.606Z,0
2017-03-24T03:47:30.307Z,0
2017-03-24T03:48:43.727Z,0
2017-03-24T03:49:57.324Z,0
2017-03-24T03:51:10.709Z,0
2017-03-24T03:52:24.277Z,0
2017-03-24T03:53:37.776Z,0
2017-03-24T03:54:51.299Z,0
2017-03-24T03:56:04.704Z,0
2017-03-24T03:57:18.279Z,0
2017-03-24T03:58:34.040Z,0
2017-03-24T03:59:48.018Z,0
2017-03-24T04:01:01.377Z,0
2017-03-24T04:02:14.904Z,0
2017-03-24T04:03:28.677Z,0
2017-03-24T04:04:42.873Z,0
2017-03-24T04:05:56.903Z,0
2017-03-24T04:07:10.687Z,0
2017-03-24T04:08:24.179Z,0
2017-03-24T04:09:37.776Z,0
2017-03-24T04:10:51.215Z,0
2017-03-24T04:12:05.018Z,0
2017-03-24T04:13:18.777Z,0
2017-03-24T04:14:49.593Z,0
2017-03-24T04:16:03.113Z,0
2017-03-24T04:17:17.099Z,0
2017-03-24T04:18:30.566Z,0
2017-03-24T04:19:43.866Z,0
2017-03-24T04:20:57.581Z,0
2017-03-24T04:22:11.205Z,0
2017-03-24T04:24:16.419Z,0
2017-03-24T04:25:30.000Z,0
2017-03-24T04:26:44.073Z,0
2017-03-24T04:27:57.665Z,0
2017-03-24T04:29:12.430Z,0
2017-03-24T04:30:25.995Z,0
2017-03-24T04:31:39.397Z,0
2017-03-24T04:32:53.297Z,0
2017-03-24T04:34:06.809Z,0
2017-03-24T04:35:20.408Z,0
2017-03-24T04:36:33.821Z,0
2017-03-24T04:37:47.337Z,0
2017-03-24T04:39:00.665Z,0
2017-03-24T04:40:14.315Z,0
2017-03-24T04:41:27.755Z,0
2017-03-24T04:42:41.805Z,0
2017-03-24T04:43:55.269Z,0
2017-03-24T04:45:08.979Z,0
2017-03-24T04:46:22.367Z,0
2017-03-24T04:47:35.912Z,0
2017-03-24T04:48:49.934Z,0
2017-03-24T04:50:03.388Z,0
2017-03-24T04:51:16.783Z,0
2017-03-24T04:52:30.256Z,0
2017-03-24T04:53:43.650Z,0
2017-03-24T04:54:57.169Z,0
2017-03-24T04:56:10.944Z,0
2017-03-24T04:57:24.461Z,4
2017-03-24T04:58:38.129Z,0
2017-03-24T04:59:51.566Z,4
2017-03-24T05:01:05.064Z,4
2017-03-24T05:02:18.541Z,4
2017-03-24T05:03:32.507Z,8
2017-03-24T05:04:46.424Z,8
2017-03-24T05:06:00.040Z,8
2017-03-24T05:07:13.880Z,8
2017-03-24T05:08:27.236Z,12
2017-03-24T05:09:40.804Z,12
2017-03-24T05:10:54.368Z,16
2017-03-24T05:12:07.954Z,16
2017-03-24T05:13:21.634Z,20
2017-03-24T05:14:35.222Z,20
2017-03-24T05:15:50.806Z,24
2017-03-24T05:17:05.450Z,28
2017-03-24T05:18:19.268Z,28
2017-03-24T05:19:33.099Z,32
2017-03-24T05:20:47.071Z,36
2017-03-24T05:22:00.588Z,40
2017-03-24T05:23:14.480Z,40
2017-03-24T05:24:28.355Z,44
2017-03-24T05:25:42.064Z,52
2017-03-24T05:26:55.569Z,56
2017-03-24T05:28:10.499Z,68
2017-03-24T05:29:24.031Z,76
2017-03-24T05:30:38.028Z,80
2017-03-24T05:31:51.897Z,88
2017-03-24T05:33:05.475Z,100
2017-03-24T05:34:19.044Z,112
2017-03-24T05:35:32.481Z,120
2017-03-24T05:36:46.301Z,132
2017-03-24T05:37:59.696Z,140
2017-03-24T05:39:13.217Z,148
2017-03-24T05:40:27.100Z,156
2017-03-24T05:41:40.654Z,160
2017-03-24T05:42:54.073Z,168
2017-03-24T05:44:07.998Z,172
2017-03-24T05:45:21.418Z,176
2017-03-24T05:46:34.864Z,192
2017-03-24T05:47:48.300Z,212
2017-03-24T05:49:01.921Z,240
2017-03-24T05:50:15.467Z,276
2017-03-24T05:51:28.932Z,292
2017-03-24T05:52:42.832Z,312
2017-03-24T05:53:56.324Z,320
2017-03-24T05:55:09.767Z,320
2017-03-24T05:56:23.338Z,328
2017-03-24T05:57:37.011Z,344
2017-03-24T05:58:51.602Z,348
2017-03-24T06:00:05.063Z,364
2017-03-24T06:01:18.479Z,380
2017-03-24T06:02:31.816Z,380
2017-03-24T06:03:46.249Z,376
2017-03-24T06:05:01.031Z,388
2017-03-24T06:06:14.907Z,404
2017-03-24T06:07:29.059Z,420
2017-03-24T06:08:42.994Z,432
2017-03-24T06:09:56.696Z,456
2017-03-24T06:11:10.263Z,496
2017-03-24T06:12:24.104Z,536
2017-03-24T06:13:38.146Z,596
2017-03-24T06:14:51.607Z,612
2017-03-24T06:16:05.471Z,616
2017-03-24T06:17:18.917Z,640
2017-03-24T06:18:32.580Z,656
2017-03-24T06:19:49.805Z,680
2017-03-24T06:21:03.758Z,708
2017-03-24T06:22:17.965Z,740
2017-03-24T06:23:31.540Z,764
2017-03-24T06:24:45.029Z,792
2017-03-24T06:25:58.924Z,824
2017-03-24T06:27:12.712Z,836
2017-03-24T06:28:26.244Z,864
2017-03-24T06:29:40.500Z,880
2017-03-24T06:30:54.972Z,888
2017-03-24T06:32:10.943Z,900
2017-03-24T06:33:33.670Z,912
2017-03-24T06:34:48.056Z,952
2017-03-24T06:36:01.549Z,1028
2017-03-24T06:37:14.998Z,1132
2017-03-24T06:38:28.535Z,1252
2017-03-24T06:39:42.583Z,1292
2017-03-24T06:40:56.743Z,1300
2017-03-24T06:42:10.231Z,1404
2017-03-24T06:43:23.792Z,1472
2017-03-24T06:44:37.219Z,1488
2017-03-24T06:45:51.107Z,1500
2017-03-24T06:47:05.016Z,1560
2017-03-24T06:48:19.530Z,1568
2017-03-24T06:49:32.902Z,1600
2017-03-24T06:50:46.405Z,1680
2017-03-24T06:51:59.929Z,1700
2017-03-24T06:53:13.866Z,1680
2017-03-24T06:54:27.255Z,1600
2017-03-24T06:55:40.775Z,1548
2017-03-24T06:56:54.309Z,1448
2017-03-24T06:58:07.943Z,1472
2017-03-24T06:59:21.743Z,1480
2017-03-24T07:00:35.605Z,1344
2017-03-24T07:01:48.989Z,1340
2017-03-24T07:03:17.420Z,1368
2017-03-24T07:04:30.762Z,1380
2017-03-24T07:05:44.655Z,1444
2017-03-24T07:06:58.426Z,1432
2017-03-24T07:08:25.645Z,1400
2017-03-24T07:09:39.019Z,1440
2017-03-24T07:10:52.509Z,1452
2017-03-24T07:12:05.947Z,1404
2017-03-24T07:13:20.316Z,1344
2017-03-24T07:14:33.623Z,1268
2017-03-24T07:15:56.433Z,1172
2017-03-24T07:17:09.806Z,1260
2017-03-24T07:18:23.407Z,1240
2017-03-24T07:19:37.042Z,1196
2017-03-24T07:20:50.471Z,1244
2017-03-24T07:22:03.868Z,1268
2017-03-24T07:23:17.335Z,1336
2017-03-24T07:24:30.833Z,1316
2017-03-24T07:25:44.718Z,1380
2017-03-24T07:26:58.464Z,1568
2017-03-24T07:28:12.298Z,1728
2017-03-24T07:29:26.024Z,1776
2017-03-24T07:30:55.239Z,1756
2017-03-24T07:32:08.662Z,1780
2017-03-24T07:33:23.993Z,1828
2017-03-24T07:34:37.523Z,1872
2017-03-24T07:35:51.282Z,1872
2017-03-24T07:37:04.934Z,2064
2017-03-24T07:38:18.935Z,2088
2017-03-24T07:39:50.264Z,2052
2017-03-24T07:41:04.124Z,2084
2017-03-24T07:42:18.511Z,1944
2017-03-24T07:43:32.061Z,2132
2017-03-24T07:44:45.682Z,2164
2017-03-24T07:46:00.241Z,2360
2017-03-24T07:47:13.590Z,2424
2017-03-24T07:48:27.176Z,2484
2017-03-24T07:49:42.769Z,2548
2017-03-24T07:50:56.355Z,2320
2017-03-24T07:52:10.715Z,2284
2017-03-24T07:53:24.227Z,2208
2017-03-24T07:54:38.178Z,2144
2017-03-24T07:55:51.802Z,2004
2017-03-24T07:57:05.221Z,1940
2017-03-24T07:58:18.993Z,1972
2017-03-24T07:59:32.368Z,2056
2017-03-24T08:00:47.031Z,2168
2017-03-24T08:02:01.764Z,2192
2017-03-24T08:03:16.918Z,2176
2017-03-24T08:04:30.703Z,2196
2017-03-24T08:05:45.180Z,2164
2017-03-24T08:06:58.767Z,2124
2017-03-24T08:08:12.477Z,2064
2017-03-24T08:09:26.143Z,2200
2017-03-24T08:10:40.095Z,2232
2017-03-24T08:11:53.559Z,2188
2017-03-24T08:13:07.058Z,2276
2017-03-24T08:14:20.944Z,2312
2017-03-24T08:15:34.413Z,2192
2017-03-24T08:16:48.197Z,2112
2017-03-24T08:18:01.701Z,2088
2017-03-24T08:19:16.951Z,2032
2017-03-24T08:20:31.155Z,2100
2017-03-24T08:21:44.728Z,2248
2017-03-24T08:22:58.654Z,2412
2017-03-24T08:24:12.414Z,2428
2017-03-24T08:25:43.143Z,2296
2017-03-24T08:26:57.199Z,2348
2017-03-24T08:28:10.896Z,2364
2017-03-24T08:29:24.492Z,2496
2017-03-24T08:30:37.981Z,2536
2017-03-24T08:31:53.821Z,2440
2017-03-24T08:33:07.284Z,2584
2017-03-24T08:34:21.007Z,2560
2017-03-24T08:35:34.808Z,2628
2017-03-24T08:36:48.432Z,2540
2017-03-24T08:38:02.248Z,2568
2017-03-24T08:39:16.028Z,2604
2017-03-24T08:40:30.412Z,2728
2017-03-24T08:41:54.385Z,2748
2017-03-24T08:43:10.185Z,2744
2017-03-24T08:44:24.061Z,2404
2017-03-24T08:45:37.971Z,2272
2017-03-24T08:46:51.485Z,2292
2017-03-24T08:48:05.443Z,2312
2017-03-24T08:49:18.911Z,2396
2017-03-24T08:50:32.321Z,2424
2017-03-24T08:51:45.853Z,2552
2017-03-24T08:52:59.306Z,2696
2017-03-24T08:54:13.097Z,2920
2017-03-24T08:55:26.702Z,3012
2017-03-24T08:56:40.275Z,3204
2017-03-24T08:57:54.032Z,3524
2017-03-24T08:59:07.523Z,3064
2017-03-24T09:00:21.270Z,2332
2017-03-24T09:01:34.916Z,2164
2017-03-24T09:02:48.326Z,2304
2017-03-24T09:04:01.905Z,2268
2017-03-24T09:05:15.570Z,2508
2017-03-24T09:06:31.605Z,2660
2017-03-24T09:07:44.921Z,2948
2017-03-24T09:08:58.473Z,3300
2017-03-24T09:10:12.144Z,4208
2017-03-24T09:11:25.644Z,4600
2017-03-24T09:12:39.574Z,4464
2017-03-24T09:13:53.483Z,4740
2017-03-24T09:15:06.848Z,4620
2017-03-24T09:16:20.570Z,4472
2017-03-24T09:17:34.781Z,4252
2017-03-24T09:18:48.635Z,4292
2017-03-24T09:20:01.984Z,4380
2017-03-24T09:21:15.642Z,4880
2017-03-24T09:22:29.827Z,4864
2017-03-24T09:23:43.573Z,4380
2017-03-24T09:24:57.209Z,5276
2017-03-24T09:26:10.828Z,5704
2017-03-24T09:27:25.284Z,5856
2017-03-24T09:28:38.888Z,6012
2017-03-24T09:29:52.243Z,5652
2017-03-24T09:31:14.845Z,4660
2017-03-24T09:32:28.233Z,4804
2017-03-24T09:33:41.649Z,4736
2017-03-24T09:34:55.022Z,5760
2017-03-24T09:36:08.755Z,5488
2017-03-24T09:37:22.115Z,4764
2017-03-24T09:38:35.900Z,4464
2017-03-24T09:39:49.277Z,5724
2017-03-24T09:41:02.755Z,6092
2017-03-24T09:42:16.096Z,5584
2017-03-24T09:43:29.514Z,5964
2017-03-24T09:44:43.113Z,6604
2017-03-24T09:45:56.881Z,6616
2017-03-24T09:47:10.198Z,6820
2017-03-24T09:48:23.644Z,7016
2017-03-24T09:49:36.936Z,6924
2017-03-24T09:50:50.446Z,6604
2017-03-24T09:52:03.766Z,5900
2017-03-24T09:53:17.401Z,6068
2017-03-24T09:54:31.147Z,6472
2017-03-24T09:55:44.928Z,6864
2017-03-24T09:56:58.308Z,6252
2017-03-24T09:58:11.894Z,5872
2017-03-24T09:59:25.448Z,4496
2017-03-24T10:00:54.881Z,4524
2017-03-24T10:02:08.641Z,5420
2017-03-24T10:03:22.582Z,7828
2017-03-24T10:04:36.071Z,7196
2017-03-24T10:05:49.788Z,6656
2017-03-24T10:07:03.499Z,7136
2017-03-24T10:08:17.029Z,6564
2017-03-24T10:09:30.462Z,6020
2017-03-24T10:10:43.942Z,6048
2017-03-24T10:11:57.362Z,6096
2017-03-24T10:13:11.450Z,5916
2017-03-24T10:14:25.207Z,6040
2017-03-24T10:15:38.812Z,6652
2017-03-24T10:16:52.581Z,6216
2017-03-24T10:18:06.681Z,6712
2017-03-24T10:19:20.379Z,7928
2017-03-24T10:20:33.887Z,6800
2017-03-24T10:21:47.949Z,5360
2017-03-24T10:23:03.857Z,5920
2017-03-24T10:24:17.253Z,7400
2017-03-24T10:25:31.698Z,7084
2017-03-24T10:26:45.468Z,6276
2017-03-24T10:27:59.282Z,6292
2017-03-24T10:29:12.659Z,5436
2017-03-24T10:30:26.480Z,4672
2017-03-24T10:31:40.120Z,3984
2017-03-24T10:32:53.615Z,3860
2017-03-24T10:34:07.295Z,3760
2017-03-24T10:35:21.128Z,3536
2017-03-24T10:36:34.494Z,3560
2017-03-24T10:37:48.373Z,3852
2017-03-24T10:39:01.790Z,4164
2017-03-24T10:40:15.649Z,4244
2017-03-24T10:41:29.075Z,4176
2017-03-24T10:42:42.713Z,4208
2017-03-24T10:43:56.433Z,4100
2017-03-24T10:45:09.997Z,3880
2017-03-24T10:46:23.399Z,3732
2017-03-24T10:47:37.178Z,3584
2017-03-24T10:48:50.642Z,3724
2017-03-24T10:50:04.511Z,3904
2017-03-24T10:51:17.893Z,3968
2017-03-24T10:52:31.744Z,4228
2017-03-24T10:53:45.150Z,4640
2017-03-24T10:54:58.687Z,5160
2017-03-24T10:56:12.315Z,5648
2017-03-24T10:57:25.775Z,6192
2017-03-24T10:58:39.493Z,5964
2017-03-24T10:59:52.994Z,5744
2017-03-24T11:01:06.439Z,5700
2017-03-24T11:02:20.647Z,5820
2017-03-24T11:03:34.088Z,5356
2017-03-24T11:04:48.274Z,5568
2017-03-24T11:06:02.761Z,6744
2017-03-24T11:07:16.322Z,6772
2017-03-24T11:08:30.092Z,7064
2017-03-24T11:09:43.859Z,7052
2017-03-24T11:10:57.368Z,7280
2017-03-24T11:12:11.626Z,7392
2017-03-24T11:13:25.341Z,7280
2017-03-24T11:14:39.274Z,7396
2017-03-24T11:15:52.712Z,7236
2017-03-24T11:17:06.775Z,6800
2017-03-24T11:18:20.514Z,6252
2017-03-24T11:19:34.721Z,5788
2017-03-24T11:20:48.396Z,6244
2017-03-24T11:22:01.962Z,6336
2017-03-24T11:23:15.376Z,6304
2017-03-24T11:24:29.202Z,5972
2017-03-24T11:25:42.669Z,5180
2017-03-24T11:26:56.731Z,5428
2017-03-24T11:28:10.760Z,6252
2017-03-24T11:29:24.256Z,5256
2017-03-24T11:30:37.748Z,4448
2017-03-24T11:31:51.578Z,4308
2017-03-24T11:33:05.348Z,4488
2017-03-24T11:34:18.960Z,4996
2017-03-24T11:35:32.418Z,5344
2017-03-24T11:36:46.385Z,5032
2017-03-24T11:37:59.975Z,5064
2017-03-24T11:39:16.369Z,5616
2017-03-24T11:40:29.757Z,6328
2017-03-24T11:41:43.392Z,6384
2017-03-24T11:42:56.831Z,6636
2017-03-24T11:44:10.460Z,6236
2017-03-24T11:45:24.434Z,6388
2017-03-24T11:46:38.056Z,6232
2017-03-24T11:47:52.003Z,6096
2017-03-24T11:49:05.868Z,6176
2017-03-24T11:50:19.523Z,6160
2017-03-24T11:51:33.413Z,6088
2017-03-24T11:52:46.880Z,5768
2017-03-24T11:54:00.438Z,5312
2017-03-24T11:55:14.148Z,5152
2017-03-24T11:56:28.408Z,4696
2017-03-24T11:57:42.471Z,4736
2017-03-24T11:58:56.341Z,5352
2017-03-24T12:00:09.740Z,5476
2017-03-24T12:01:23.452Z,5732
2017-03-24T12:02:36.935Z,5888
2017-03-24T12:03:50.775Z,6152
2017-03-24T12:05:04.143Z,6264
2017-03-24T12:06:17.706Z,6472
2017-03-24T12:07:31.076Z,6496
2017-03-24T12:08:44.557Z,6312
2017-03-24T12:09:59.018Z,5816
2017-03-24T12:11:12.484Z,5096
2017-03-24T12:12:25.946Z,4708
2017-03-24T12:13:39.924Z,4224
2017-03-24T12:14:53.663Z,3932
2017-03-24T12:16:07.410Z,3740
2017-03-24T12:17:20.860Z,3640
2017-03-24T12:18:34.416Z,3540
2017-03-24T12:19:48.604Z,3520
2017-03-24T12:21:02.144Z,3532
2017-03-24T12:22:15.883Z,3624
2017-03-24T12:23:29.649Z,3716
2017-03-24T12:24:43.314Z,4184
2017-03-24T12:26:10.455Z,4636
2017-03-24T12:27:23.912Z,4688
2017-03-24T12:28:38.467Z,4644
2017-03-24T12:29:52.320Z,4680
2017-03-24T12:31:06.218Z,4812
2017-03-24T12:32:20.469Z,5072
2017-03-24T12:33:34.169Z,5252
2017-03-24T12:34:48.327Z,5552
2017-03-24T12:36:01.940Z,5832
2017-03-24T12:37:15.330Z,5912
2017-03-24T12:38:29.820Z,6072
2017-03-24T12:39:43.901Z,6160
2017-03-24T12:40:57.531Z,6204
2017-03-24T12:42:11.455Z,6260
2017-03-24T12:43:25.000Z,6408
2017-03-24T12:44:38.727Z,6520
2017-03-24T12:45:52.224Z,6536
2017-03-24T12:47:05.606Z,6352
2017-03-24T12:48:19.161Z,6104
2017-03-24T12:49:32.672Z,5912
2017-03-24T12:50:47.225Z,5652
2017-03-24T12:52:01.147Z,5160
2017-03-24T12:53:14.792Z,4624
2017-03-24T12:54:28.674Z,4156
2017-03-24T12:55:44.543Z,3804
2017-03-24T12:56:58.332Z,3568
2017-03-24T12:58:12.296Z,3416
2017-03-24T12:59:25.945Z,3340
2017-03-24T13:00:40.211Z,3284
2017-03-24T13:01:54.017Z,3296
2017-03-24T13:03:08.215Z,3300
2017-03-24T13:04:22.306Z,3320
2017-03-24T13:05:35.997Z,3352
2017-03-24T13:06:49.416Z,3352
2017-03-24T13:08:03.066Z,3348
2017-03-24T13:09:17.090Z,3332
2017-03-24T13:10:30.759Z,3308
2017-03-24T13:11:44.287Z,3272
2017-03-24T13:12:57.828Z,3252
2017-03-24T13:14:11.324Z,3228
2017-03-24T13:15:25.834Z,3216
2017-03-24T13:16:39.533Z,3164
2017-03-24T13:17:53.762Z,3116
2017-03-24T13:19:07.203Z,3068
2017-03-24T13:20:21.105Z,3044
2017-03-24T13:21:34.921Z,3000
2017-03-24T13:22:48.914Z,2880
2017-03-24T13:24:03.310Z,2772
2017-03-24T13:25:17.359Z,2824
2017-03-24T13:26:31.183Z,2844
2017-03-24T13:27:45.304Z,2876
2017-03-24T13:28:58.774Z,2964
2017-03-24T13:30:12.712Z,2972
2017-03-24T13:31:27.496Z,2888
2017-03-24T13:32:41.798Z,2780
2017-03-24T13:33:55.534Z,2748
2017-03-24T13:35:09.176Z,2644
2017-03-24T13:36:23.109Z,2508
2017-03-24T13:37:36.659Z,2384
2017-03-24T13:38:51.327Z,2324
2017-03-24T13:40:05.132Z,2208
2017-03-24T13:41:18.902Z,2080
2017-03-24T13:42:32.483Z,2012
2017-03-24T13:43:46.462Z,2000
2017-03-24T13:45:00.342Z,2076
2017-03-24T13:46:14.007Z,2260
2017-03-24T13:47:27.964Z,2496
2017-03-24T13:48:41.431Z,2712
2017-03-24T13:49:54.933Z,2868
2017-03-24T13:51:08.435Z,2872
2017-03-24T13:52:22.485Z,2740
2017-03-24T13:53:36.324Z,2588
2017-03-24T13:54:49.872Z,2516
2017-03-24T13:56:06.377Z,2480
2017-03-24T13:57:19.925Z,2608
2017-03-24T13:58:33.648Z,2704
2017-03-24T13:59:47.314Z,2772
2017-03-24T14:01:01.013Z,2728
2017-03-24T14:02:14.475Z,2752
2017-03-24T14:03:28.376Z,2736
2017-03-24T14:04:42.746Z,2632
2017-03-24T14:05:56.066Z,2576
2017-03-24T14:07:09.588Z,2492
2017-03-24T14:08:23.043Z,2500
2017-03-24T14:09:36.621Z,2468
2017-03-24T14:10:50.434Z,2588
2017-03-24T14:12:06.905Z,2700
2017-03-24T14:13:20.434Z,2712
2017-03-24T14:14:47.128Z,2668
2017-03-24T14:16:00.996Z,2752
2017-03-24T14:17:14.555Z,2836
2017-03-24T14:18:28.436Z,2760
2017-03-24T14:19:41.912Z,2648
2017-03-24T14:20:55.545Z,2624
2017-03-24T14:22:23.359Z,2592
2017-03-24T14:23:36.991Z,2432
2017-03-24T14:24:51.037Z,2336
2017-03-24T14:26:04.350Z,2300
2017-03-24T14:27:17.784Z,2244
2017-03-24T14:28:31.579Z,2288
2017-03-24T14:29:45.218Z,2240
2017-03-24T14:30:58.567Z,2136
2017-03-24T14:32:12.356Z,2068
2017-03-24T14:33:25.987Z,2160
2017-03-24T14:34:40.315Z,2132
2017-03-24T14:35:53.653Z,2180
2017-03-24T14:37:07.305Z,2220
2017-03-24T14:38:21.471Z,2284
2017-03-24T14:39:35.684Z,2300
2017-03-24T14:40:49.591Z,2240
2017-03-24T14:42:03.777Z,2332
2017-03-24T14:43:17.382Z,2324
2017-03-24T14:44:32.503Z,2408
2017-03-24T14:45:45.963Z,2428
2017-03-24T14:48:06.911Z,2380
2017-03-24T14:49:26.428Z,2356
2017-03-24T14:50:41.059Z,2324
2017-03-24T14:52:09.390Z,2280
2017-03-24T14:53:22.784Z,2240
2017-03-24T14:54:36.686Z,2180
2017-03-24T14:55:50.189Z,2136
2017-03-24T14:57:24.819Z,2100
2017-03-24T14:58:47.504Z,2112
2017-03-24T15:00:01.529Z,2160
2017-03-24T15:01:15.426Z,2248
2017-03-24T15:02:29.310Z,2276
2017-03-24T15:03:43.161Z,2264
2017-03-24T15:04:57.659Z,2244
2017-03-24T15:06:25.754Z,2232
2017-03-24T15:07:39.843Z,2208
2017-03-24T15:08:53.611Z,2136
2017-03-24T15:10:07.950Z,2120
2017-03-24T15:11:21.632Z,2096
2017-03-24T15:12:35.099Z,2108
2017-03-24T15:14:14.354Z,2104
2017-03-24T15:15:29.077Z,2080
2017-03-24T15:16:42.975Z,2036
2017-03-24T15:17:56.664Z,2020
2017-03-24T15:19:10.110Z,2016
2017-03-24T15:20:24.092Z,2016
2017-03-24T15:21:37.522Z,2020
2017-03-24T15:22:51.331Z,2020
2017-03-24T15:24:05.316Z,2016
2017-03-24T15:25:19.705Z,2004
2017-03-24T15:26:33.107Z,2004
2017-03-24T15:27:46.582Z,2000
2017-03-24T15:29:00.044Z,1984
2017-03-24T15:30:13.607Z,1968
2017-03-24T15:31:30.393Z,1940
2017-03-24T15:32:44.254Z,1908
2017-03-24T15:33:57.709Z,1908
2017-03-24T15:35:11.349Z,1912
2017-03-24T15:36:25.224Z,1908
2017-03-24T15:37:38.810Z,1900
2017-03-24T15:38:52.735Z,1896
2017-03-24T15:40:06.592Z,1892
2017-03-24T15:41:20.021Z,1884
2017-03-24T15:42:33.616Z,1872
2017-03-24T15:43:47.031Z,1860
2017-03-24T15:45:00.946Z,1852
2017-03-24T15:46:14.477Z,1840
2017-03-24T15:47:28.206Z,1832
2017-03-24T15:48:42.785Z,1812
2017-03-24T15:49:57.697Z,1796
2017-03-24T15:51:11.454Z,1776
2017-03-24T15:52:35.968Z,1760
2017-03-24T15:53:49.499Z,1744
2017-03-24T15:55:03.622Z,1736
2017-03-24T15:56:17.433Z,1724
2017-03-24T15:57:31.568Z,1716
2017-03-24T15:58:45.274Z,1704
2017-03-24T15:59:59.912Z,1692
2017-03-24T16:01:13.868Z,1684
2017-03-24T16:02:27.490Z,1676
2017-03-24T16:03:41.007Z,1668
2017-03-24T16:04:54.815Z,1664
2017-03-24T16:06:08.648Z,1664
2017-03-24T16:07:23.054Z,1660
2017-03-24T16:08:37.022Z,1652
2017-03-24T16:09:50.886Z,1640
2017-03-24T16:11:04.635Z,1624
2017-03-24T16:12:18.209Z,1608
2017-03-24T16:13:31.887Z,1588
2017-03-24T16:14:45.729Z,1572
2017-03-24T16:15:59.805Z,1552
2017-03-24T16:17:13.390Z,1540
2017-03-24T16:18:28.073Z,1524
2017-03-24T16:19:43.240Z,1520
2017-03-24T16:20:58.226Z,1512
2017-03-24T16:22:12.345Z,1500
2017-03-24T16:23:27.152Z,1488
2017-03-24T16:24:55.698Z,1468
2017-03-24T16:26:09.646Z,1456
2017-03-24T16:27:24.350Z,1436
2017-03-24T16:28:38.377Z,1420
2017-03-24T16:29:52.208Z,1400
2017-03-24T16:31:06.378Z,1380
2017-03-24T16:32:21.750Z,1364
2017-03-24T16:33:35.330Z,1348
2017-03-24T16:34:49.331Z,1332
2017-03-24T16:36:02.896Z,1312
2017-03-24T16:37:18.297Z,1296
2017-03-24T16:38:32.335Z,1276
2017-03-24T16:39:46.057Z,1260
2017-03-24T16:40:59.952Z,1240
2017-03-24T16:42:14.217Z,1220
2017-03-24T16:43:40.467Z,1188
2017-03-24T16:44:54.490Z,1164
2017-03-24T16:46:07.877Z,1136
2017-03-24T16:47:21.780Z,1104
2017-03-24T16:48:37.688Z,1072
2017-03-24T16:49:51.882Z,1040
2017-03-24T16:51:05.469Z,1032
2017-03-24T16:52:19.075Z,1024
2017-03-24T16:53:33.189Z,1008
2017-03-24T16:54:47.234Z,984
2017-03-24T16:56:00.615Z,964
2017-03-24T16:57:14.450Z,940
2017-03-24T16:58:28.512Z,908
2017-03-24T16:59:58.831Z,868
2017-03-24T17:01:12.220Z,852
2017-03-24T17:02:25.820Z,836
2017-03-24T17:03:39.298Z,816
2017-03-24T17:04:53.564Z,796